sensor_id;sensor_type;location;lat;lon;timestamp;P1;durP1;ratioP1;P2;durP2;ratioP2
2129;SDS011;1071;52.544;13.374;2023-05-20T00:02:13;4.67;;;3.20;;
2129;SDS011;1071;52.544;13.374;2023-05-20T00:04:41;3.60;;;2.67;;
2129;SDS011;1071;52.544;13.374;2023-05-20T00:07:08;5.57;;;3.90;;
2129;SDS011;1071;52.544;13.374;2023-05-20T00:09:36;5.13;;;4.13;;
2129;SDS011;1071;52.544;13.374;2023-05-20T00:12:05;4.07;;;3.60;;
2129;SDS011;1071;52.544;13.374;2023-05-20T00:14:32;3.23;;;2.93;;
2129;SDS011;1071;52.544;13.374;2023-05-20T00:16:59;3.90;;;3.27;;
2129;SDS011;1071;52.544;13.374;2023-05-20T00:19:28;4.20;;;3.80;;
2129;SDS011;1071;52.544;13.374;2023-05-20T00:21:55;3.23;;;2.93;;
2129;SDS011;1071;52.544;13.374;2023-05-20T00:24:22;5.20;;;3.17;;
2129;SDS011;1071;52.544;13.374;2023-05-20T00:26:50;3.50;;;3.07;;
2129;SDS011;1071;52.544;13.374;2023-05-20T00:29:17;3.27;;;3.07;;
2129;SDS011;1071;52.544;13.374;2023-05-20T00:31:44;5.60;;;4.97;;
2129;SDS011;1071;52.544;13.374;2023-05-20T00:34:11;6.63;;;3.67;;
2129;SDS011;1071;52.544;13.374;2023-05-20T00:36:39;6.77;;;3.37;;
2129;SDS011;1071;52.544;13.374;2023-05-20T00:39:07;2.80;;;2.60;;
2129;SDS011;1071;52.544;13.374;2023-05-20T00:41:34;3.50;;;3.07;;
2129;SDS011;1071;52.544;13.374;2023-05-20T00:44:01;5.27;;;3.23;;
2129;SDS011;1071;52.544;13.374;2023-05-20T00:46:28;5.17;;;4.67;;
2129;SDS011;1071;52.544;13.374;2023-05-20T00:48:55;4.10;;;3.70;;
2129;SDS011;1071;52.544;13.374;2023-05-20T00:51:23;4.32;;;3.78;;
2129;SDS011;1071;52.544;13.374;2023-05-20T00:53:51;5.18;;;3.67;;
2129;SDS011;1071;52.544;13.374;2023-05-20T00:56:19;7.07;;;4.07;;
2129;SDS011;1071;52.544;13.374;2023-05-20T00:58:46;4.28;;;3.88;;
2129;SDS011;1071;52.544;13.374;2023-05-20T01:01:14;4.10;;;3.70;;
2129;SDS011;1071;52.544;13.374;2023-05-20T01:03:41;4.40;;;4.03;;
2129;SDS011;1071;52.544;13.374;2023-05-20T01:06:08;6.75;;;3.47;;
2129;SDS011;1071;52.544;13.374;2023-05-20T01:08:35;4.47;;;3.70;;
2129;SDS011;1071;52.544;13.374;2023-05-20T01:11:05;3.80;;;3.50;;
2129;SDS011;1071;52.544;13.374;2023-05-20T01:13:35;4.63;;;4.20;;
2129;SDS011;1071;52.544;13.374;2023-05-20T01:16:07;4.00;;;3.10;;
2129;SDS011;1071;52.544;13.374;2023-05-20T01:18:36;4.85;;;3.65;;
2129;SDS011;1071;52.544;13.374;2023-05-20T01:21:05;3.80;;;3.40;;
2129;SDS011;1071;52.544;13.374;2023-05-20T01:23:38;4.82;;;4.03;;
2129;SDS011;1071;52.544;13.374;2023-05-20T01:26:06;4.00;;;3.60;;
2129;SDS011;1071;52.544;13.374;2023-05-20T01:28:34;4.10;;;3.50;;
2129;SDS011;1071;52.544;13.374;2023-05-20T01:31:04;4.10;;;3.80;;
2129;SDS011;1071;52.544;13.374;2023-05-20T01:33:33;4.55;;;3.85;;
2129;SDS011;1071;52.544;13.374;2023-05-20T01:36:02;3.53;;;3.22;;
2129;SDS011;1071;52.544;13.374;2023-05-20T01:38:31;3.97;;;3.53;;
2129;SDS011;1071;52.544;13.374;2023-05-20T01:41:01;5.03;;;4.35;;
2129;SDS011;1071;52.544;13.374;2023-05-20T01:43:30;3.95;;;3.55;;
2129;SDS011;1071;52.544;13.374;2023-05-20T01:45:57;4.10;;;3.70;;
2129;SDS011;1071;52.544;13.374;2023-05-20T01:48:27;5.38;;;3.63;;
2129;SDS011;1071;52.544;13.374;2023-05-20T01:50:56;5.32;;;4.10;;
2129;SDS011;1071;52.544;13.374;2023-05-20T01:53:23;6.85;;;4.75;;
2129;SDS011;1071;52.544;13.374;2023-05-20T01:55:50;4.10;;;3.73;;
2129;SDS011;1071;52.544;13.374;2023-05-20T01:58:18;4.50;;;4.10;;
2129;SDS011;1071;52.544;13.374;2023-05-20T02:00:46;4.70;;;3.75;;
2129;SDS011;1071;52.544;13.374;2023-05-20T02:03:13;7.55;;;4.28;;
2129;SDS011;1071;52.544;13.374;2023-05-20T02:05:40;4.40;;;4.10;;
2129;SDS011;1071;52.544;13.374;2023-05-20T02:08:07;8.53;;;4.67;;
2129;SDS011;1071;52.544;13.374;2023-05-20T02:10:34;4.45;;;3.70;;
2129;SDS011;1071;52.544;13.374;2023-05-20T02:13:01;4.93;;;4.38;;
2129;SDS011;1071;52.544;13.374;2023-05-20T02:15:32;7.13;;;4.90;;
2129;SDS011;1071;52.544;13.374;2023-05-20T02:17:59;5.00;;;4.50;;
2129;SDS011;1071;52.544;13.374;2023-05-20T02:20:26;4.00;;;3.60;;
2129;SDS011;1071;52.544;13.374;2023-05-20T02:22:54;7.00;;;3.85;;
2129;SDS011;1071;52.544;13.374;2023-05-20T02:25:21;4.57;;;3.67;;
2129;SDS011;1071;52.544;13.374;2023-05-20T02:27:49;4.50;;;3.58;;
2129;SDS011;1071;52.544;13.374;2023-05-20T02:30:16;4.90;;;4.20;;
2129;SDS011;1071;52.544;13.374;2023-05-20T02:32:45;5.78;;;3.78;;
2129;SDS011;1071;52.544;13.374;2023-05-20T02:35:13;3.60;;;3.30;;
2129;SDS011;1071;52.544;13.374;2023-05-20T02:37:40;3.58;;;3.28;;
2129;SDS011;1071;52.544;13.374;2023-05-20T02:40:09;3.40;;;3.10;;
2129;SDS011;1071;52.544;13.374;2023-05-20T02:42:36;8.88;;;4.30;;
2129;SDS011;1071;52.544;13.374;2023-05-20T02:45:04;5.20;;;3.75;;
2129;SDS011;1071;52.544;13.374;2023-05-20T02:47:31;3.85;;;3.55;;
2129;SDS011;1071;52.544;13.374;2023-05-20T02:50:00;5.13;;;4.63;;
2129;SDS011;1071;52.544;13.374;2023-05-20T02:52:27;4.20;;;3.85;;
2129;SDS011;1071;52.544;13.374;2023-05-20T02:54:54;5.40;;;4.35;;
2129;SDS011;1071;52.544;13.374;2023-05-20T02:57:21;4.40;;;3.65;;
2129;SDS011;1071;52.544;13.374;2023-05-20T02:59:48;5.38;;;3.88;;
2129;SDS011;1071;52.544;13.374;2023-05-20T03:02:16;3.58;;;3.28;;
2129;SDS011;1071;52.544;13.374;2023-05-20T03:04:43;7.18;;;4.00;;
2129;SDS011;1071;52.544;13.374;2023-05-20T03:07:12;5.50;;;3.75;;
2129;SDS011;1071;52.544;13.374;2023-05-20T03:09:43;3.70;;;3.40;;
2129;SDS011;1071;52.544;13.374;2023-05-20T03:12:10;6.82;;;4.00;;
2129;SDS011;1071;52.544;13.374;2023-05-20T03:14:37;3.38;;;3.05;;
2129;SDS011;1071;52.544;13.374;2023-05-20T03:17:04;4.45;;;4.05;;
2129;SDS011;1071;52.544;13.374;2023-05-20T03:19:32;4.82;;;3.83;;
2129;SDS011;1071;52.544;13.374;2023-05-20T03:21:59;6.53;;;4.07;;
2129;SDS011;1071;52.544;13.374;2023-05-20T03:24:28;3.75;;;3.45;;
2129;SDS011;1071;52.544;13.374;2023-05-20T03:26:56;4.55;;;3.47;;
2129;SDS011;1071;52.544;13.374;2023-05-20T03:29:23;4.63;;;4.00;;
2129;SDS011;1071;52.544;13.374;2023-05-20T03:31:57;4.55;;;4.18;;
2129;SDS011;1071;52.544;13.374;2023-05-20T03:34:24;5.47;;;3.53;;
2129;SDS011;1071;52.544;13.374;2023-05-20T03:36:54;3.85;;;3.55;;
2129;SDS011;1071;52.544;13.374;2023-05-20T03:39:21;4.32;;;3.92;;
2129;SDS011;1071;52.544;13.374;2023-05-20T03:41:53;4.10;;;3.70;;
2129;SDS011;1071;52.544;13.374;2023-05-20T03:44:20;4.30;;;4.00;;
2129;SDS011;1071;52.544;13.374;2023-05-20T03:46:47;4.82;;;4.22;;
2129;SDS011;1071;52.544;13.374;2023-05-20T03:49:14;4.60;;;4.13;;
2129;SDS011;1071;52.544;13.374;2023-05-20T03:51:41;6.20;;;4.30;;
2129;SDS011;1071;52.544;13.374;2023-05-20T03:54:08;6.88;;;3.97;;
2129;SDS011;1071;52.544;13.374;2023-05-20T03:56:36;4.10;;;3.70;;
2129;SDS011;1071;52.544;13.374;2023-05-20T03:59:04;7.13;;;4.80;;
2129;SDS011;1071;52.544;13.374;2023-05-20T04:01:31;4.20;;;3.80;;
2129;SDS011;1071;52.544;13.374;2023-05-20T04:03:58;9.60;;;4.22;;
2129;SDS011;1071;52.544;13.374;2023-05-20T04:06:25;6.35;;;4.28;;
2129;SDS011;1071;52.544;13.374;2023-05-20T04:08:52;4.43;;;4.00;;
2129;SDS011;1071;52.544;13.374;2023-05-20T04:11:19;5.47;;;3.95;;
2129;SDS011;1071;52.544;13.374;2023-05-20T04:13:46;4.10;;;3.63;;
2129;SDS011;1071;52.544;13.374;2023-05-20T04:16:15;5.15;;;3.63;;
2129;SDS011;1071;52.544;13.374;2023-05-20T04:18:42;5.10;;;3.75;;
2129;SDS011;1071;52.544;13.374;2023-05-20T04:21:10;5.03;;;4.32;;
2129;SDS011;1071;52.544;13.374;2023-05-20T04:23:36;4.43;;;3.72;;
2129;SDS011;1071;52.544;13.374;2023-05-20T04:26:03;7.82;;;4.95;;
2129;SDS011;1071;52.544;13.374;2023-05-20T04:28:31;7.22;;;4.60;;
2129;SDS011;1071;52.544;13.374;2023-05-20T04:30:58;7.80;;;4.45;;
2129;SDS011;1071;52.544;13.374;2023-05-20T04:33:28;10.60;;;4.03;;
2129;SDS011;1071;52.544;13.374;2023-05-20T04:35:56;5.25;;;4.03;;
2129;SDS011;1071;52.544;13.374;2023-05-20T04:38:25;4.70;;;4.20;;
2129;SDS011;1071;52.544;13.374;2023-05-20T04:40:54;6.03;;;4.80;;
2129;SDS011;1071;52.544;13.374;2023-05-20T04:43:22;4.78;;;4.38;;
2129;SDS011;1071;52.544;13.374;2023-05-20T04:45:50;6.95;;;4.72;;
2129;SDS011;1071;52.544;13.374;2023-05-20T04:48:18;6.50;;;4.43;;
2129;SDS011;1071;52.544;13.374;2023-05-20T04:50:47;4.45;;;4.05;;
2129;SDS011;1071;52.544;13.374;2023-05-20T04:53:16;5.93;;;5.20;;
2129;SDS011;1071;52.544;13.374;2023-05-20T04:55:43;6.70;;;4.07;;
2129;SDS011;1071;52.544;13.374;2023-05-20T04:58:10;4.85;;;4.35;;
2129;SDS011;1071;52.544;13.374;2023-05-20T05:00:39;4.50;;;4.10;;
2129;SDS011;1071;52.544;13.374;2023-05-20T05:03:09;5.00;;;4.10;;
2129;SDS011;1071;52.544;13.374;2023-05-20T05:05:43;4.65;;;4.25;;
2129;SDS011;1071;52.544;13.374;2023-05-20T05:08:12;7.68;;;5.22;;
2129;SDS011;1071;52.544;13.374;2023-05-20T05:10:39;7.05;;;4.85;;
2129;SDS011;1071;52.544;13.374;2023-05-20T05:13:14;5.43;;;4.88;;
2129;SDS011;1071;52.544;13.374;2023-05-20T05:15:48;6.68;;;5.13;;
2129;SDS011;1071;52.544;13.374;2023-05-20T05:18:23;6.45;;;4.70;;
2129;SDS011;1071;52.544;13.374;2023-05-20T05:20:57;6.80;;;4.55;;
2129;SDS011;1071;52.544;13.374;2023-05-20T05:23:26;7.82;;;5.32;;
2129;SDS011;1071;52.544;13.374;2023-05-20T05:25:53;5.68;;;4.72;;
2129;SDS011;1071;52.544;13.374;2023-05-20T05:28:20;5.72;;;4.60;;
2129;SDS011;1071;52.544;13.374;2023-05-20T05:30:47;5.57;;;5.00;;
2129;SDS011;1071;52.544;13.374;2023-05-20T05:33:14;6.40;;;5.53;;
2129;SDS011;1071;52.544;13.374;2023-05-20T05:35:41;5.60;;;5.10;;
2129;SDS011;1071;52.544;13.374;2023-05-20T05:38:09;7.28;;;5.60;;
2129;SDS011;1071;52.544;13.374;2023-05-20T05:40:37;7.88;;;4.53;;
2129;SDS011;1071;52.544;13.374;2023-05-20T05:43:04;5.82;;;4.80;;
2129;SDS011;1071;52.544;13.374;2023-05-20T05:45:31;5.35;;;4.60;;
2129;SDS011;1071;52.544;13.374;2023-05-20T05:47:59;6.30;;;5.20;;
2129;SDS011;1071;52.544;13.374;2023-05-20T05:50:26;4.90;;;4.40;;
2129;SDS011;1071;52.544;13.374;2023-05-20T05:52:53;7.03;;;4.88;;
2129;SDS011;1071;52.544;13.374;2023-05-20T05:55:20;5.70;;;5.00;;
2129;SDS011;1071;52.544;13.374;2023-05-20T05:57:49;6.47;;;5.00;;
2129;SDS011;1071;52.544;13.374;2023-05-20T06:00:17;5.95;;;5.13;;
2129;SDS011;1071;52.544;13.374;2023-05-20T06:02:49;5.43;;;4.97;;
2129;SDS011;1071;52.544;13.374;2023-05-20T06:05:16;5.32;;;4.82;;
2129;SDS011;1071;52.544;13.374;2023-05-20T06:07:43;5.40;;;4.90;;
2129;SDS011;1071;52.544;13.374;2023-05-20T06:10:10;7.18;;;5.10;;
2129;SDS011;1071;52.544;13.374;2023-05-20T06:12:38;6.20;;;5.65;;
2129;SDS011;1071;52.544;13.374;2023-05-20T06:15:07;6.50;;;5.60;;
2129;SDS011;1071;52.544;13.374;2023-05-20T06:17:35;8.55;;;5.65;;
2129;SDS011;1071;52.544;13.374;2023-05-20T06:20:03;5.90;;;5.25;;
2129;SDS011;1071;52.544;13.374;2023-05-20T06:22:31;6.37;;;5.60;;
2129;SDS011;1071;52.544;13.374;2023-05-20T06:24:58;8.87;;;5.07;;
2129;SDS011;1071;52.544;13.374;2023-05-20T06:27:26;9.85;;;4.95;;
2129;SDS011;1071;52.544;13.374;2023-05-20T06:29:53;5.85;;;5.13;;
2129;SDS011;1071;52.544;13.374;2023-05-20T06:32:23;8.82;;;5.70;;
2129;SDS011;1071;52.544;13.374;2023-05-20T06:34:50;6.97;;;5.15;;
2129;SDS011;1071;52.544;13.374;2023-05-20T06:37:17;6.13;;;5.47;;
2129;SDS011;1071;52.544;13.374;2023-05-20T06:39:45;9.45;;;6.10;;
2129;SDS011;1071;52.544;13.374;2023-05-20T06:42:15;7.83;;;7.03;;
2129;SDS011;1071;52.544;13.374;2023-05-20T06:44:42;9.02;;;6.82;;
2129;SDS011;1071;52.544;13.374;2023-05-20T06:47:09;6.55;;;5.45;;
2129;SDS011;1071;52.544;13.374;2023-05-20T06:49:37;6.10;;;5.50;;
2129;SDS011;1071;52.544;13.374;2023-05-20T06:52:05;8.80;;;5.88;;
2129;SDS011;1071;52.544;13.374;2023-05-20T06:54:32;5.40;;;4.90;;
2129;SDS011;1071;52.544;13.374;2023-05-20T06:57:04;5.87;;;5.27;;
2129;SDS011;1071;52.544;13.374;2023-05-20T06:59:31;7.80;;;7.05;;
2129;SDS011;1071;52.544;13.374;2023-05-20T07:01:58;6.67;;;5.30;;
2129;SDS011;1071;52.544;13.374;2023-05-20T07:04:25;6.63;;;5.72;;
2129;SDS011;1071;52.544;13.374;2023-05-20T07:06:53;4.90;;;4.50;;
2129;SDS011;1071;52.544;13.374;2023-05-20T07:09:20;6.10;;;5.33;;
2129;SDS011;1071;52.544;13.374;2023-05-20T07:11:47;5.63;;;5.13;;
2129;SDS011;1071;52.544;13.374;2023-05-20T07:14:15;7.03;;;6.30;;
2129;SDS011;1071;52.544;13.374;2023-05-20T07:16:42;6.80;;;5.90;;
2129;SDS011;1071;52.544;13.374;2023-05-20T07:19:09;9.03;;;5.80;;
2129;SDS011;1071;52.544;13.374;2023-05-20T07:21:36;9.03;;;6.60;;
2129;SDS011;1071;52.544;13.374;2023-05-20T07:24:04;7.40;;;6.60;;
2129;SDS011;1071;52.544;13.374;2023-05-20T07:26:32;6.53;;;5.93;;
2129;SDS011;1071;52.544;13.374;2023-05-20T07:29:00;7.03;;;6.30;;
2129;SDS011;1071;52.544;13.374;2023-05-20T07:31:28;7.37;;;6.20;;
2129;SDS011;1071;52.544;13.374;2023-05-20T07:33:55;13.40;;;6.93;;
2129;SDS011;1071;52.544;13.374;2023-05-20T07:36:22;7.50;;;5.90;;
2129;SDS011;1071;52.544;13.374;2023-05-20T07:38:52;7.73;;;6.37;;
2129;SDS011;1071;52.544;13.374;2023-05-20T07:41:20;8.37;;;5.50;;
2129;SDS011;1071;52.544;13.374;2023-05-20T07:43:48;7.17;;;6.20;;
2129;SDS011;1071;52.544;13.374;2023-05-20T07:46:15;7.33;;;6.50;;
2129;SDS011;1071;52.544;13.374;2023-05-20T07:48:42;7.87;;;6.10;;
2129;SDS011;1071;52.544;13.374;2023-05-20T07:51:10;6.50;;;5.90;;
2129;SDS011;1071;52.544;13.374;2023-05-20T07:53:37;5.90;;;5.40;;
2129;SDS011;1071;52.544;13.374;2023-05-20T07:56:05;10.57;;;6.47;;
2129;SDS011;1071;52.544;13.374;2023-05-20T07:58:33;10.80;;;6.00;;
2129;SDS011;1071;52.544;13.374;2023-05-20T08:01:00;6.37;;;5.77;;
2129;SDS011;1071;52.544;13.374;2023-05-20T08:03:27;6.67;;;5.90;;
2129;SDS011;1071;52.544;13.374;2023-05-20T08:05:54;7.17;;;6.47;;
2129;SDS011;1071;52.544;13.374;2023-05-20T08:08:23;8.40;;;5.70;;
2129;SDS011;1071;52.544;13.374;2023-05-20T08:10:50;6.43;;;5.57;;
2129;SDS011;1071;52.544;13.374;2023-05-20T08:13:17;6.00;;;5.50;;
2129;SDS011;1071;52.544;13.374;2023-05-20T08:15:46;8.50;;;6.13;;
2129;SDS011;1071;52.544;13.374;2023-05-20T08:18:13;7.13;;;5.90;;
2129;SDS011;1071;52.544;13.374;2023-05-20T08:20:40;8.10;;;6.97;;
2129;SDS011;1071;52.544;13.374;2023-05-20T08:23:07;9.53;;;6.73;;
2129;SDS011;1071;52.544;13.374;2023-05-20T08:25:35;6.63;;;5.67;;
2129;SDS011;1071;52.544;13.374;2023-05-20T08:28:03;7.37;;;6.30;;
2129;SDS011;1071;52.544;13.374;2023-05-20T08:30:32;6.93;;;5.70;;
2129;SDS011;1071;52.544;13.374;2023-05-20T08:33:01;6.20;;;5.60;;
2129;SDS011;1071;52.544;13.374;2023-05-20T08:35:28;7.50;;;6.47;;
2129;SDS011;1071;52.544;13.374;2023-05-20T08:37:55;5.93;;;5.43;;
2129;SDS011;1071;52.544;13.374;2023-05-20T08:40:22;6.70;;;6.00;;
2129;SDS011;1071;52.544;13.374;2023-05-20T08:42:50;7.10;;;6.13;;
2129;SDS011;1071;52.544;13.374;2023-05-20T08:45:18;6.27;;;5.67;;
2129;SDS011;1071;52.544;13.374;2023-05-20T08:47:50;6.77;;;6.17;;
2129;SDS011;1071;52.544;13.374;2023-05-20T08:50:19;5.13;;;4.30;;
2129;SDS011;1071;52.544;13.374;2023-05-20T08:52:46;5.17;;;4.67;;
2129;SDS011;1071;52.544;13.374;2023-05-20T08:55:16;6.20;;;5.60;;
2129;SDS011;1071;52.544;13.374;2023-05-20T08:57:46;6.50;;;5.17;;
2129;SDS011;1071;52.544;13.374;2023-05-20T09:00:14;7.43;;;5.37;;
2129;SDS011;1071;52.544;13.374;2023-05-20T09:02:43;5.40;;;4.80;;
2129;SDS011;1071;52.544;13.374;2023-05-20T09:05:10;5.53;;;5.13;;
2129;SDS011;1071;52.544;13.374;2023-05-20T09:07:39;10.60;;;5.60;;
2129;SDS011;1071;52.544;13.374;2023-05-20T09:10:07;9.73;;;5.27;;
2129;SDS011;1071;52.544;13.374;2023-05-20T09:12:35;5.67;;;5.17;;
2129;SDS011;1071;52.544;13.374;2023-05-20T09:15:03;6.40;;;5.80;;
2129;SDS011;1071;52.544;13.374;2023-05-20T09:17:31;6.20;;;5.70;;
2129;SDS011;1071;52.544;13.374;2023-05-20T09:20:00;6.27;;;5.57;;
2129;SDS011;1071;52.544;13.374;2023-05-20T09:22:28;6.40;;;5.90;;
2129;SDS011;1071;52.544;13.374;2023-05-20T09:24:56;7.90;;;5.90;;
2129;SDS011;1071;52.544;13.374;2023-05-20T09:27:23;6.27;;;4.73;;
2129;SDS011;1071;52.544;13.374;2023-05-20T09:29:50;5.73;;;5.23;;
2129;SDS011;1071;52.544;13.374;2023-05-20T09:32:19;6.60;;;6.00;;
2129;SDS011;1071;52.544;13.374;2023-05-20T09:34:48;6.40;;;5.63;;
2129;SDS011;1071;52.544;13.374;2023-05-20T09:37:16;5.27;;;4.77;;
2129;SDS011;1071;52.544;13.374;2023-05-20T09:39:47;8.40;;;7.70;;
2129;SDS011;1071;52.544;13.374;2023-05-20T09:42:24;6.73;;;6.13;;
2129;SDS011;1071;52.544;13.374;2023-05-20T09:44:53;7.07;;;6.40;;
2129;SDS011;1071;52.544;13.374;2023-05-20T09:47:22;7.57;;;6.80;;
2129;SDS011;1071;52.544;13.374;2023-05-20T09:49:50;8.23;;;7.27;;
2129;SDS011;1071;52.544;13.374;2023-05-20T09:52:18;8.20;;;7.40;;
2129;SDS011;1071;52.544;13.374;2023-05-20T09:54:45;14.13;;;11.97;;
2129;SDS011;1071;52.544;13.374;2023-05-20T09:57:14;9.70;;;8.87;;
2129;SDS011;1071;52.544;13.374;2023-05-20T09:59:43;8.30;;;7.27;;
2129;SDS011;1071;52.544;13.374;2023-05-20T10:02:12;8.60;;;7.70;;
2129;SDS011;1071;52.544;13.374;2023-05-20T10:04:41;9.10;;;6.97;;
2129;SDS011;1071;52.544;13.374;2023-05-20T10:07:21;12.87;;;8.33;;
2129;SDS011;1071;52.544;13.374;2023-05-20T10:09:58;8.53;;;7.73;;
2129;SDS011;1071;52.544;13.374;2023-05-20T10:12:37;8.10;;;7.10;;
2129;SDS011;1071;52.544;13.374;2023-05-20T10:15:20;8.43;;;7.23;;
2129;SDS011;1071;52.544;13.374;2023-05-20T10:17:55;9.33;;;7.87;;
2129;SDS011;1071;52.544;13.374;2023-05-20T10:20:28;8.20;;;7.40;;
2129;SDS011;1071;52.544;13.374;2023-05-20T10:22:55;11.03;;;7.07;;
2129;SDS011;1071;52.544;13.374;2023-05-20T10:25:23;17.50;;;8.20;;
2129;SDS011;1071;52.544;13.374;2023-05-20T10:28:03;8.70;;;8.00;;
2129;SDS011;1071;52.544;13.374;2023-05-20T10:30:33;9.03;;;8.00;;
2129;SDS011;1071;52.544;13.374;2023-05-20T10:33:02;7.87;;;7.00;;
2129;SDS011;1071;52.544;13.374;2023-05-20T10:35:30;14.87;;;8.50;;
2129;SDS011;1071;52.544;13.374;2023-05-20T10:38:06;8.73;;;7.83;;
2129;SDS011;1071;52.544;13.374;2023-05-20T10:40:34;8.33;;;7.53;;
2129;SDS011;1071;52.544;13.374;2023-05-20T10:43:07;8.57;;;7.67;;
2129;SDS011;1071;52.544;13.374;2023-05-20T10:45:46;9.03;;;7.57;;
2129;SDS011;1071;52.544;13.374;2023-05-20T10:48:18;10.97;;;8.77;;
2129;SDS011;1071;52.544;13.374;2023-05-20T10:50:47;9.87;;;7.07;;
2129;SDS011;1071;52.544;13.374;2023-05-20T10:53:14;8.57;;;6.90;;
2129;SDS011;1071;52.544;13.374;2023-05-20T10:55:46;9.33;;;8.47;;
2129;SDS011;1071;52.544;13.374;2023-05-20T10:58:15;8.37;;;7.67;;
2129;SDS011;1071;52.544;13.374;2023-05-20T11:00:44;9.90;;;8.17;;
2129;SDS011;1071;52.544;13.374;2023-05-20T11:03:13;8.00;;;7.23;;
2129;SDS011;1071;52.544;13.374;2023-05-20T11:05:46;8.50;;;7.70;;
2129;SDS011;1071;52.544;13.374;2023-05-20T11:08:13;12.50;;;7.47;;
2129;SDS011;1071;52.544;13.374;2023-05-20T11:10:40;8.90;;;7.77;;
2129;SDS011;1071;52.544;13.374;2023-05-20T11:13:11;7.37;;;6.67;;
2129;SDS011;1071;52.544;13.374;2023-05-20T11:15:39;7.80;;;7.03;;
2129;SDS011;1071;52.544;13.374;2023-05-20T11:18:09;9.00;;;7.90;;
2129;SDS011;1071;52.544;13.374;2023-05-20T11:20:39;9.10;;;8.20;;
2129;SDS011;1071;52.544;13.374;2023-05-20T11:23:10;9.77;;;8.43;;
2129;SDS011;1071;52.544;13.374;2023-05-20T11:25:37;10.47;;;8.20;;
2129;SDS011;1071;52.544;13.374;2023-05-20T11:28:07;11.10;;;7.77;;
2129;SDS011;1071;52.544;13.374;2023-05-20T11:30:35;8.60;;;7.70;;
2129;SDS011;1071;52.544;13.374;2023-05-20T11:33:02;7.87;;;7.00;;
2129;SDS011;1071;52.544;13.374;2023-05-20T11:35:31;9.77;;;8.77;;
2129;SDS011;1071;52.544;13.374;2023-05-20T11:38:00;8.87;;;7.97;;
2129;SDS011;1071;52.544;13.374;2023-05-20T11:40:28;8.43;;;7.73;;
2129;SDS011;1071;52.544;13.374;2023-05-20T11:42:58;9.30;;;8.37;;
2129;SDS011;1071;52.544;13.374;2023-05-20T11:45:26;13.33;;;7.90;;
2129;SDS011;1071;52.544;13.374;2023-05-20T11:48:04;8.83;;;7.93;;
2129;SDS011;1071;52.544;13.374;2023-05-20T11:50:34;9.03;;;8.13;;
2129;SDS011;1071;52.544;13.374;2023-05-20T11:53:03;8.70;;;7.10;;
2129;SDS011;1071;52.544;13.374;2023-05-20T11:55:31;9.50;;;7.80;;
2129;SDS011;1071;52.544;13.374;2023-05-20T11:57:59;8.73;;;7.83;;
2129;SDS011;1071;52.544;13.374;2023-05-20T12:00:28;9.63;;;8.67;;
2129;SDS011;1071;52.544;13.374;2023-05-20T12:02:55;10.63;;;9.43;;
2129;SDS011;1071;52.544;13.374;2023-05-20T12:05:22;13.13;;;7.43;;
2129;SDS011;1071;52.544;13.374;2023-05-20T12:07:51;8.27;;;7.47;;
2129;SDS011;1071;52.544;13.374;2023-05-20T12:10:18;8.70;;;7.70;;
2129;SDS011;1071;52.544;13.374;2023-05-20T12:12:45;9.10;;;7.80;;
2129;SDS011;1071;52.544;13.374;2023-05-20T12:15:12;10.97;;;7.77;;
2129;SDS011;1071;52.544;13.374;2023-05-20T12:17:46;8.43;;;7.60;;
2129;SDS011;1071;52.544;13.374;2023-05-20T12:20:14;10.47;;;9.10;;
2129;SDS011;1071;52.544;13.374;2023-05-20T12:22:42;9.53;;;8.50;;
2129;SDS011;1071;52.544;13.374;2023-05-20T12:25:12;9.60;;;8.67;;
2129;SDS011;1071;52.544;13.374;2023-05-20T12:27:40;10.73;;;9.73;;
2129;SDS011;1071;52.544;13.374;2023-05-20T12:30:12;8.60;;;7.90;;
2129;SDS011;1071;52.544;13.374;2023-05-20T12:32:41;9.30;;;8.40;;
2129;SDS011;1071;52.544;13.374;2023-05-20T12:35:08;10.10;;;8.70;;
2129;SDS011;1071;52.544;13.374;2023-05-20T12:37:36;9.20;;;8.10;;
2129;SDS011;1071;52.544;13.374;2023-05-20T12:40:06;10.20;;;9.13;;
2129;SDS011;1071;52.544;13.374;2023-05-20T12:42:36;9.13;;;8.30;;
2129;SDS011;1071;52.544;13.374;2023-05-20T12:45:05;9.00;;;8.20;;
2129;SDS011;1071;52.544;13.374;2023-05-20T12:47:33;9.80;;;8.87;;
2129;SDS011;1071;52.544;13.374;2023-05-20T12:50:00;10.33;;;9.33;;
2129;SDS011;1071;52.544;13.374;2023-05-20T12:52:28;9.73;;;8.80;;
2129;SDS011;1071;52.544;13.374;2023-05-20T12:54:55;9.10;;;8.30;;
2129;SDS011;1071;52.544;13.374;2023-05-20T12:57:22;11.93;;;8.50;;
2129;SDS011;1071;52.544;13.374;2023-05-20T12:59:53;9.50;;;8.47;;
2129;SDS011;1071;52.544;13.374;2023-05-20T13:02:28;9.43;;;8.53;;
2129;SDS011;1071;52.544;13.374;2023-05-20T13:04:55;11.07;;;9.43;;
2129;SDS011;1071;52.544;13.374;2023-05-20T13:07:22;9.23;;;8.43;;
2129;SDS011;1071;52.544;13.374;2023-05-20T13:09:50;13.20;;;10.30;;
2129;SDS011;1071;52.544;13.374;2023-05-20T13:12:17;8.83;;;8.00;;
2129;SDS011;1071;52.544;13.374;2023-05-20T13:14:44;9.30;;;8.40;;
2129;SDS011;1071;52.544;13.374;2023-05-20T13:17:13;9.90;;;8.90;;
2129;SDS011;1071;52.544;13.374;2023-05-20T13:19:40;8.70;;;7.90;;
2129;SDS011;1071;52.544;13.374;2023-05-20T13:22:08;9.50;;;8.60;;
2129;SDS011;1071;52.544;13.374;2023-05-20T13:24:35;8.43;;;7.73;;
2129;SDS011;1071;52.544;13.374;2023-05-20T13:27:03;8.90;;;8.20;;
2129;SDS011;1071;52.544;13.374;2023-05-20T13:29:30;8.97;;;8.17;;
2129;SDS011;1071;52.544;13.374;2023-05-20T13:31:57;9.60;;;8.60;;
2129;SDS011;1071;52.544;13.374;2023-05-20T13:34:25;9.53;;;8.07;;
2129;SDS011;1071;52.544;13.374;2023-05-20T13:36:52;12.47;;;9.67;;
2129;SDS011;1071;52.544;13.374;2023-05-20T13:39:22;10.07;;;8.37;;
2129;SDS011;1071;52.544;13.374;2023-05-20T13:41:49;8.80;;;8.00;;
2129;SDS011;1071;52.544;13.374;2023-05-20T13:44:18;10.97;;;9.83;;
2129;SDS011;1071;52.544;13.374;2023-05-20T13:46:45;8.70;;;8.00;;
2129;SDS011;1071;52.544;13.374;2023-05-20T13:49:12;8.90;;;8.10;;
2129;SDS011;1071;52.544;13.374;2023-05-20T13:51:41;10.13;;;7.70;;
2129;SDS011;1071;52.544;13.374;2023-05-20T13:54:08;9.00;;;7.90;;
2129;SDS011;1071;52.544;13.374;2023-05-20T13:56:35;7.73;;;7.13;;
2129;SDS011;1071;52.544;13.374;2023-05-20T13:59:02;8.57;;;7.60;;
2129;SDS011;1071;52.544;13.374;2023-05-20T14:01:30;10.00;;;8.00;;
2129;SDS011;1071;52.544;13.374;2023-05-20T14:03:58;9.03;;;7.60;;
2129;SDS011;1071;52.544;13.374;2023-05-20T14:06:25;9.20;;;8.10;;
2129;SDS011;1071;52.544;13.374;2023-05-20T14:08:55;9.00;;;8.17;;
2129;SDS011;1071;52.544;13.374;2023-05-20T14:11:22;9.53;;;8.63;;
2129;SDS011;1071;52.544;13.374;2023-05-20T14:13:49;10.53;;;8.70;;
2129;SDS011;1071;52.544;13.374;2023-05-20T14:16:16;8.60;;;7.80;;
2129;SDS011;1071;52.544;13.374;2023-05-20T14:18:43;10.80;;;8.77;;
2129;SDS011;1071;52.544;13.374;2023-05-20T14:21:10;8.63;;;7.83;;
2129;SDS011;1071;52.544;13.374;2023-05-20T14:23:38;9.07;;;8.17;;
2129;SDS011;1071;52.544;13.374;2023-05-20T14:26:09;9.10;;;8.30;;
2129;SDS011;1071;52.544;13.374;2023-05-20T14:28:36;10.33;;;9.17;;
2129;SDS011;1071;52.544;13.374;2023-05-20T14:31:04;8.83;;;6.70;;
2129;SDS011;1071;52.544;13.374;2023-05-20T14:33:31;8.87;;;7.97;;
2129;SDS011;1071;52.544;13.374;2023-05-20T14:35:58;8.13;;;7.30;;
2129;SDS011;1071;52.544;13.374;2023-05-20T14:38:25;11.93;;;8.47;;
2129;SDS011;1071;52.544;13.374;2023-05-20T14:40:53;8.97;;;6.73;;
2129;SDS011;1071;52.544;13.374;2023-05-20T14:43:21;7.70;;;7.00;;
2129;SDS011;1071;52.544;13.374;2023-05-20T14:45:48;9.53;;;7.67;;
2129;SDS011;1071;52.544;13.374;2023-05-20T14:48:15;8.10;;;7.50;;
2129;SDS011;1071;52.544;13.374;2023-05-20T14:50:43;9.70;;;7.40;;
2129;SDS011;1071;52.544;13.374;2023-05-20T14:53:10;7.90;;;7.27;;
2129;SDS011;1071;52.544;13.374;2023-05-20T14:55:37;8.73;;;8.03;;
2129;SDS011;1071;52.544;13.374;2023-05-20T14:58:04;8.50;;;7.50;;
2129;SDS011;1071;52.544;13.374;2023-05-20T15:00:33;8.93;;;7.73;;
2129;SDS011;1071;52.544;13.374;2023-05-20T15:03:00;7.37;;;6.73;;
2129;SDS011;1071;52.544;13.374;2023-05-20T15:05:27;7.50;;;6.87;;
2129;SDS011;1071;52.544;13.374;2023-05-20T15:07:55;8.90;;;8.10;;